Terminal Aerodrome Forecast
Issued by NWS

Home | Current Version | Previous Version | Text Only | Print | Product List | Glossary On
Versions: 1 2 3 4 5 6 7 8 9 10 11 12 13 14
000
FTUS45 KRIW 191100
TAFCPR
TAF
KCPR 191132Z 1912/2012 VRB06KT P6SM -SHRA VCTS SCT060CB OVC100
      TEMPO 1912/1913 VRB10G20KT 5SM -TSRA FEW015 BKN050CB
     FM191400 28008KT P6SM VCSH BKN080
     FM191700 29011KT P6SM SCT120
     FM200000 01011KT P6SM SKC
     FM200600 04006KT P6SM SKC=

USA.gov is the U.S. government's official web portal to all federal, state and local government web resources and services.